Time;durP1;ratioP1;P1;durP2;ratioP2;P2;SDS_P1;SDS_P2;PMS_P1;PMS_P2;Temp;Humidity;BMP_temperature;BMP_pressure;BME280_temperature;BME280_humidity;BME280_pressure;Samples;Min_cycle;Max_cycle;Signal;HPM_P1;HPM_P2
2022/01/13 00:01:12;;;;;;;31.33;25.87;;;;;;;-2.04;100.00;102619.91;4968178;28;20205;-47
2022/01/13 00:03:39;;;;;;;29.10;25.10;;;;;;;-1.96;100.00;102615.41;4962183;28;20568;-47
2022/01/13 00:06:04;;;;;;;27.33;22.00;;;;;;;-1.91;100.00;102617.56;4965989;28;20218;-46
2022/01/13 00:08:30;;;;;;;26.60;22.57;;;;;;;-1.90;100.00;102615.91;4966956;28;20201;-47
2022/01/13 00:10:56;;;;;;;27.00;23.13;;;;;;;-1.82;100.00;102629.22;4966815;28;20202;-46
2022/01/13 00:13:25;;;;;;;23.97;21.30;;;;;;;-1.81;100.00;102629.31;4967357;28;20204;-47
2022/01/13 00:18:40;;;;;;;27.50;21.33;;;;;;;-1.79;100.00;102626.94;4963477;28;20693;-45
2022/01/13 00:21:16;;;;;;;29.30;24.47;;;;;;;-1.79;100.00;102632.00;4960682;28;20202;-48
2022/01/13 00:26:16;;;;;;;29.10;24.53;;;;;;;-1.76;100.00;102642.41;4966808;28;20261;-47
2022/01/13 00:28:47;;;;;;;29.50;25.20;;;;;;;-1.74;100.00;102644.28;4967128;28;20233;-48
2022/01/13 00:31:16;;;;;;;26.67;23.33;;;;;;;-1.76;100.00;102640.72;4968264;28;20195;-48
2022/01/13 00:33:45;;;;;;;27.33;22.97;;;;;;;-1.74;100.00;102649.38;4966152;28;20196;-47
2022/01/13 00:36:10;;;;;;;27.20;23.27;;;;;;;-1.73;100.00;102653.69;4965709;28;20578;-47
2022/01/13 00:38:35;;;;;;;28.13;24.03;;;;;;;-1.68;100.00;102643.88;4964814;28;20190;-47
2022/01/13 00:41:01;;;;;;;28.93;25.27;;;;;;;-1.73;100.00;102635.91;4962078;28;20277;-47
2022/01/13 00:43:26;;;;;;;29.47;23.57;;;;;;;-1.72;100.00;102642.75;4966748;28;20221;-47
2022/01/13 00:45:52;;;;;;;33.17;26.63;;;;;;;-1.71;100.00;102638.56;4967393;28;20229;-47
2022/01/13 00:48:18;;;;;;;29.67;25.00;;;;;;;-1.71;100.00;102643.63;4966863;28;20205;-47
2022/01/13 00:50:44;;;;;;;28.60;24.33;;;;;;;-1.72;100.00;102654.56;4963192;28;20224;-47
2022/01/13 00:53:10;;;;;;;29.30;24.50;;;;;;;-1.70;100.00;102655.56;4967564;28;20194;-47
2022/01/13 00:55:48;;;;;;;28.23;24.83;;;;;;;-1.66;100.00;102664.34;4966140;28;20265;-47
2022/01/13 00:58:14;;;;;;;30.27;24.67;;;;;;;-1.70;100.00;102666.63;4968133;28;20199;-47
2022/01/13 01:00:41;;;;;;;35.33;27.67;;;;;;;-1.70;100.00;102666.63;4979178;28;20190;-47
2022/01/13 01:03:07;;;;;;;30.50;24.77;;;;;;;-1.68;100.00;102666.72;4967628;28;20301;-47
2022/01/13 01:05:34;;;;;;;28.50;24.43;;;;;;;-1.68;100.00;102674.34;4970302;28;20663;-46
2022/01/13 01:08:01;;;;;;;30.17;25.13;;;;;;;-1.65;100.00;102661.91;4969128;28;20186;-47
2022/01/13 01:10:26;;;;;;;28.50;25.23;;;;;;;-1.61;100.00;102669.00;4967067;28;20196;-46
2022/01/13 01:12:52;;;;;;;28.63;24.43;;;;;;;-1.61;100.00;102676.63;4967530;28;20717;-46
2022/01/13 01:15:17;;;;;;;33.90;27.13;;;;;;;-1.52;100.00;102676.47;4967807;28;20210;-46
2022/01/13 01:17:48;;;;;;;31.53;26.90;;;;;;;-1.48;100.00;102682.66;4964570;28;20620;-46
2022/01/13 01:20:14;;;;;;;27.03;23.73;;;;;;;-1.49;100.00;102676.69;4967591;28;20186;-48
2022/01/13 01:27:46;;;;;;;28.03;23.20;;;;;;;-1.44;100.00;102679.63;4969280;28;20216;-48
2022/01/13 01:30:47;;;;;;;26.50;23.37;;;;;;;-1.46;100.00;102681.16;4967011;28;20348;-48
2022/01/13 01:33:03;;;;;;;25.03;22.00;;;;;;;-1.44;100.00;102674.53;4965425;28;20494;-47
2022/01/13 01:35:29;;;;;;;25.97;21.77;;;;;;;-1.45;100.00;102683.78;4976043;28;20709;-47
2022/01/13 01:37:55;;;;;;;24.50;21.70;;;;;;;-1.43;100.00;102679.72;4972540;28;20236;-48
2022/01/13 01:40:22;;;;;;;25.23;21.53;;;;;;;-1.43;100.00;102682.25;4966705;28;20197;-47
2022/01/13 01:42:48;;;;;;;24.97;21.07;;;;;;;-1.41;100.00;102684.91;4972645;28;20219;-47
2022/01/13 01:45:15;;;;;;;23.33;20.83;;;;;;;-1.41;100.00;102668.03;4978074;28;20256;-47
2022/01/13 01:47:43;;;;;;;26.63;21.93;;;;;;;-1.41;100.00;102670.56;4967281;28;20203;-47
2022/01/13 01:50:18;;;;;;;24.37;21.77;;;;;;;-1.38;100.00;102667.38;4966063;28;20629;-47
2022/01/13 01:52:51;;;;;;;24.43;21.20;;;;;;;-1.33;100.00;102667.72;4966031;28;20197;-48
2022/01/13 01:55:18;;;;;;;22.63;20.13;;;;;;;-1.30;100.00;102668.88;4966989;28;20214;-47
2022/01/13 01:57:45;;;;;;;25.20;20.90;;;;;;;-1.31;100.00;102667.09;4969065;28;20222;-48
2022/01/13 02:00:14;;;;;;;24.80;21.40;;;;;;;-1.28;100.00;102663.91;4965709;28;20197;-47
2022/01/13 02:02:41;;;;;;;23.60;20.10;;;;;;;-1.32;100.00;102667.88;4977392;28;20222;-47
2022/01/13 02:05:07;;;;;;;23.50;20.80;;;;;;;-1.35;100.00;102666.72;4972310;28;20205;-47
2022/01/13 02:07:32;;;;;;;24.20;21.17;;;;;;;-1.35;100.00;102665.09;4971300;28;20262;-46
2022/01/13 02:09:58;;;;;;;24.43;21.37;;;;;;;-1.38;100.00;102655.56;4965225;28;20387;-47
2022/01/13 02:12:33;;;;;;;23.67;21.10;;;;;;;-1.40;100.00;102653.66;4967262;28;20263;-46
2022/01/13 02:15:17;;;;;;;22.80;19.30;;;;;;;-1.45;100.00;102652.44;4966844;28;20552;-46
2022/01/13 02:17:43;;;;;;;24.00;20.90;;;;;;;-1.49;100.00;102648.75;4959762;28;20210;-48
2022/01/13 02:20:15;;;;;;;22.90;20.13;;;;;;;-1.49;100.00;102652.97;4970382;28;20234;-47
2022/01/13 02:22:40;;;;;;;22.60;19.50;;;;;;;-1.50;100.00;102641.03;4970804;28;20292;-46
2022/01/13 02:25:06;;;;;;;23.90;20.80;;;;;;;-1.49;100.00;102647.88;4972929;28;20224;-47
2022/01/13 02:27:32;;;;;;;22.57;20.20;;;;;;;-1.46;100.00;102641.38;4974987;28;20214;-47
2022/01/13 02:29:57;;;;;;;23.50;20.80;;;;;;;-1.46;100.00;102645.59;4971026;28;20197;-46
2022/01/13 02:32:22;;;;;;;22.37;19.87;;;;;;;-1.44;100.00;102637.31;4963856;28;20294;-47
2022/01/13 02:34:48;;;;;;;22.40;20.00;;;;;;;-1.49;100.00;102630.97;4963900;28;20587;-47
2022/01/13 02:37:14;;;;;;;23.93;20.83;;;;;;;-1.51;100.00;102626.56;4975453;28;20193;-47
2022/01/13 02:39:41;;;;;;;23.93;20.77;;;;;;;-1.56;100.00;102627.06;4978544;28;20694;-47
2022/01/13 02:42:12;;;;;;;26.03;22.70;;;;;;;-1.53;100.00;102628.97;4972499;28;20187;-47
2022/01/13 02:45:31;;;;;;;26.47;23.07;;;;;;;-1.57;100.00;102638.00;4968843;28;20221;-46
2022/01/13 02:47:59;;;;;;;26.20;22.53;;;;;;;-1.56;100.00;102634.69;4969671;28;20658;-47
2022/01/13 02:50:22;;;;;;;25.40;22.53;;;;;;;-1.58;100.00;102632.81;4959193;28;20203;-47
2022/01/13 02:52:48;;;;;;;25.57;22.70;;;;;;;-1.64;100.00;102640.81;4970267;28;20203;-47
2022/01/13 02:55:13;;;;;;;25.83;22.73;;;;;;;-1.69;100.00;102637.94;4968988;28;20215;-47
2022/01/13 02:57:39;;;;;;;25.83;22.23;;;;;;;-1.72;100.00;102637.69;4963341;28;20210;-46
2022/01/13 03:00:07;;;;;;;24.57;21.97;;;;;;;-1.76;100.00;102634.78;4963723;28;20219;-46
2022/01/13 03:02:32;;;;;;;28.60;23.73;;;;;;;-1.81;100.00;102621.69;4959772;28;20557;-47
2022/01/13 03:04:58;;;;;;;25.93;22.13;;;;;;;-1.86;100.00;102628.97;4965462;28;20210;-46
2022/01/13 03:07:25;;;;;;;26.07;21.93;;;;;;;-1.92;100.00;102630.13;4966154;28;20205;-46
2022/01/13 03:09:50;;;;;;;25.93;23.13;;;;;;;-1.92;100.00;102631.03;4965955;28;20187;-46
2022/01/13 03:12:17;;;;;;;23.37;20.23;;;;;;;-1.94;100.00;102622.41;4966449;28;20696;-46
2022/01/13 03:14:45;;;;;;;23.23;19.67;;;;;;;-2.01;100.00;102615.94;4963090;28;20223;-47
2022/01/13 03:17:10;;;;;;;22.77;20.10;;;;;;;-2.06;100.00;102621.44;4968517;28;20237;-48
2022/01/13 03:19:35;;;;;;;22.33;19.77;;;;;;;-2.08;100.00;102617.88;4966668;28;20276;-47
2022/01/13 03:22:02;;;;;;;25.23;21.60;;;;;;;-2.11;100.00;102621.03;4961654;28;20205;-47
2022/01/13 03:24:29;;;;;;;24.30;21.60;;;;;;;-2.11;100.00;102610.00;4960497;28;20655;-47
2022/01/13 03:26:55;;;;;;;27.67;23.60;;;;;;;-2.11;100.00;102618.50;4966826;28;20293;-47
2022/01/13 03:29:22;;;;;;;25.60;22.60;;;;;;;-2.16;100.00;102607.97;4971240;28;20653;-47
2022/01/13 03:31:48;;;;;;;25.53;22.10;;;;;;;-2.18;100.00;102606.97;4962645;28;20199;-47
2022/01/13 03:34:15;;;;;;;27.03;22.97;;;;;;;-2.17;100.00;102616.34;4965812;28;20212;-46
2022/01/13 03:36:41;;;;;;;27.63;24.00;;;;;;;-2.20;100.00;102621.22;4967213;28;20200;-47
2022/01/13 03:39:08;;;;;;;25.33;22.53;;;;;;;-2.22;100.00;102611.69;4973396;28;20272;-47
2022/01/13 03:41:35;;;;;;;24.83;21.90;;;;;;;-2.26;100.00;102612.19;4968382;28;20189;-47
2022/01/13 03:44:06;;;;;;;27.57;24.60;;;;;;;-2.23;100.00;102605.72;4967686;28;20704;-46
2022/01/13 03:46:36;;;;;;;29.30;25.03;;;;;;;-2.21;100.00;102616.91;4963373;28;20198;-46
2022/01/13 03:49:03;;;;;;;26.67;22.87;;;;;;;-2.26;100.00;102617.25;4965652;28;20190;-49
2022/01/13 03:52:03;;;;;;;22.30;19.90;;;;;;;-2.35;100.00;102627.56;4967087;28;20558;-47
2022/01/13 03:54:31;;;;;;;21.07;18.30;;;;;;;-2.45;100.00;102626.81;4970588;28;20422;-46
2022/01/13 03:56:56;;;;;;;22.13;18.50;;;;;;;-2.49;100.00;102628.97;4966504;28;20196;-47
2022/01/13 03:59:28;;;;;;;21.07;18.87;;;;;;;-2.54;100.00;102636.19;4961861;28;20192;-47
2022/01/13 04:02:04;;;;;;;24.53;20.47;;;;;;;-2.58;100.00;102639.22;4965066;28;20309;-46
2022/01/13 04:04:39;;;;;;;23.10;20.53;;;;;;;-2.62;100.00;102640.63;4962147;28;20239;-47
2022/01/13 04:07:19;;;;;;;25.33;22.57;;;;;;;-2.61;100.00;102641.50;4962790;28;20374;-47
2022/01/13 04:09:45;;;;;;;26.87;23.97;;;;;;;-2.62;100.00;102648.25;4957858;28;20687;-46
2022/01/13 04:12:12;;;;;;;25.80;22.20;;;;;;;-2.64;100.00;102651.38;4968054;28;20207;-46
2022/01/13 04:17:13;;;;;;;23.47;19.33;;;;;;;-2.68;100.00;102654.44;4963787;28;20186;-46
2022/01/13 04:19:40;;;;;;;23.43;20.03;;;;;;;-2.68;100.00;102659.53;4957591;28;20555;-47
2022/01/13 04:22:06;;;;;;;25.37;21.57;;;;;;;-2.67;100.00;102646.09;4962343;28;20205;-46
2022/01/13 04:24:32;;;;;;;24.63;20.90;;;;;;;-2.68;100.00;102651.91;4965584;28;20280;-47
2022/01/13 04:26:58;;;;;;;28.27;23.30;;;;;;;-2.68;100.00;102649.38;4966834;28;20464;-46
2022/01/13 04:29:33;;;;;;;22.63;20.13;;;;;;;-2.71;100.00;102647.47;4965529;28;20197;-47
2022/01/13 04:31:58;;;;;;;24.17;20.30;;;;;;;-2.72;100.00;102648.22;4960591;28;20561;-47
2022/01/13 04:34:23;;;;;;;22.83;19.17;;;;;;;-2.74;100.00;102649.75;4963609;28;20225;-47
2022/01/13 04:36:49;;;;;;;22.40;18.40;;;;;;;-2.76;100.00;102639.47;4965038;28;20289;-47
2022/01/13 04:39:17;;;;;;;22.47;19.33;;;;;;;-2.77;100.00;102655.44;4961934;28;20182;-47
2022/01/13 04:41:45;;;;;;;21.03;18.67;;;;;;;-2.79;100.00;102659.50;4970827;28;20281;-47
2022/01/13 04:44:17;;;;;;;22.40;18.77;;;;;;;-2.82;100.00;102644.06;4969489;28;20333;-47
2022/01/13 04:46:43;;;;;;;21.03;17.90;;;;;;;-2.84;100.00;102647.19;4960396;28;21862;-47
2022/01/13 04:49:08;;;;;;;21.07;18.77;;;;;;;-2.87;100.00;102640.22;4968877;28;20193;-47
2022/01/13 04:51:35;;;;;;;21.97;18.90;;;;;;;-2.89;100.00;102644.28;4966826;28;20638;-47
2022/01/13 04:54:00;;;;;;;23.47;18.53;;;;;;;-2.92;100.00;102641.47;4968027;28;20190;-47
2022/01/13 04:56:29;;;;;;;22.80;19.47;;;;;;;-2.96;100.00;102639.47;4964234;28;20190;-47
2022/01/13 04:58:55;;;;;;;23.03;18.87;;;;;;;-2.97;100.00;102640.22;4963682;28;21065;-48
2022/01/13 05:01:21;;;;;;;23.73;20.37;;;;;;;-3.00;100.00;102640.84;4958780;28;20280;-47
2022/01/13 05:03:46;;;;;;;22.87;19.80;;;;;;;-3.01;100.00;102648.31;4961094;28;20210;-47
2022/01/13 05:06:13;;;;;;;25.30;21.23;;;;;;;-3.01;100.00;102651.72;4966294;28;20216;-47
2022/01/13 05:08:39;;;;;;;25.47;20.87;;;;;;;-3.02;100.00;102649.94;4976870;28;20183;-47
2022/01/13 05:11:04;;;;;;;23.13;20.27;;;;;;;-3.04;100.00;102646.44;4961059;28;20253;-47
2022/01/13 05:13:30;;;;;;;26.67;21.17;;;;;;;-3.06;100.00;102653.00;4976824;28;20182;-47
2022/01/13 05:15:55;;;;;;;31.20;26.03;;;;;;;-3.02;100.00;102656.69;4964971;28;20642;-46
2022/01/13 05:18:42;;;;;;;31.63;26.20;;;;;;;-3.03;100.00;102660.88;4968313;28;20209;-47
2022/01/13 05:21:18;;;;;;;31.70;26.40;;;;;;;-3.08;100.00;102655.41;4961680;28;20198;-47
2022/01/13 05:23:43;;;;;;;27.23;22.43;;;;;;;-3.10;100.00;102664.50;4963376;28;20697;-47
2022/01/13 05:26:10;;;;;;;40.80;34.00;;;;;;;-3.10;100.00;102669.56;4964679;28;20221;-47
2022/01/13 05:28:36;;;;;;;32.80;28.90;;;;;;;-3.10;100.00;102672.09;4962851;28;20201;-47
2022/01/13 05:31:01;;;;;;;36.13;29.93;;;;;;;-3.04;100.00;102671.75;4965558;28;20685;-47
2022/01/13 05:33:27;;;;;;;31.53;26.83;;;;;;;-3.02;100.00;102670.22;4968882;28;20194;-47
2022/01/13 05:35:52;;;;;;;33.50;29.70;;;;;;;-2.98;100.00;102672.25;4979371;28;20230;-46
2022/01/13 05:38:18;;;;;;;33.83;28.73;;;;;;;-2.95;100.00;102662.41;4972416;28;20194;-46
2022/01/13 05:40:44;;;;;;;34.83;29.23;;;;;;;-2.92;100.00;102661.75;4972093;28;20194;-47
2022/01/13 05:43:09;;;;;;;33.67;27.60;;;;;;;-2.93;100.00;102665.03;4973666;28;20221;-46
2022/01/13 05:45:35;;;;;;;27.87;24.33;;;;;;;-2.93;100.00;102670.13;4973590;28;20219;-47
2022/01/13 05:48:02;;;;;;;29.17;23.73;;;;;;;-2.96;100.00;102658.09;4971674;28;20659;-46
2022/01/13 05:50:31;;;;;;;27.40;23.17;;;;;;;-2.96;100.00;102662.28;4972963;28;20197;-46
2022/01/13 05:52:57;;;;;;;26.60;22.87;;;;;;;-2.99;100.00;102662.88;4973809;28;20244;-46
2022/01/13 05:55:23;;;;;;;30.27;25.77;;;;;;;-3.02;100.00;102670.22;4970886;28;20210;-46
2022/01/13 05:57:48;;;;;;;25.60;21.97;;;;;;;-3.04;100.00;102681.91;4980914;28;20200;-46
2022/01/13 06:00:17;;;;;;;25.17;21.57;;;;;;;-3.09;100.00;102666.28;4967982;28;20189;-47
2022/01/13 06:02:43;;;;;;;24.63;20.87;;;;;;;-3.11;100.00;102662.75;4963482;28;20724;-46
2022/01/13 06:05:09;;;;;;;23.90;20.53;;;;;;;-3.13;100.00;102659.19;4955915;28;20217;-46
2022/01/13 06:07:35;;;;;;;24.40;19.70;;;;;;;-3.14;100.00;102659.97;4959574;28;20235;-46
2022/01/13 06:10:03;;;;;;;23.20;20.10;;;;;;;-3.16;100.00;102664.00;4967831;28;20602;-46
2022/01/13 06:12:37;;;;;;;23.63;19.77;;;;;;;-3.19;100.00;102662.84;4968258;28;20188;-47
2022/01/13 06:15:08;;;;;;;24.23;21.17;;;;;;;-3.20;100.00;102663.63;4968610;28;20724;-48
2022/01/13 06:17:35;;;;;;;27.03;22.70;;;;;;;-3.22;100.00;102663.47;4973592;28;20200;-46
2022/01/13 06:20:02;;;;;;;24.67;21.33;;;;;;;-3.24;100.00;102659.91;4974197;28;20269;-47
2022/01/13 06:22:27;;;;;;;26.97;23.17;;;;;;;-3.25;100.00;102666.63;4952551;28;20202;-47
2022/01/13 06:24:54;;;;;;;28.10;24.17;;;;;;;-3.27;100.00;102665.59;4958204;28;20222;-47
2022/01/13 06:27:22;;;;;;;25.00;21.70;;;;;;;-3.30;100.00;102662.81;4962754;28;20682;-48
2022/01/13 06:29:49;;;;;;;26.43;22.47;;;;;;;-3.33;100.00;102666.72;4970511;28;20571;-47
2022/01/13 06:32:14;;;;;;;24.60;20.97;;;;;;;-3.38;100.00;102662.16;4970904;28;20190;-47
2022/01/13 06:34:40;;;;;;;24.27;21.43;;;;;;;-3.40;100.00;102667.84;4970692;28;20202;-47
2022/01/13 06:37:05;;;;;;;28.90;22.87;;;;;;;-3.43;100.00;102671.00;4969395;28;20196;-47
2022/01/13 06:39:30;;;;;;;27.33;22.97;;;;;;;-3.44;100.00;102674.28;4970234;28;20666;-47
2022/01/13 06:41:56;;;;;;;25.47;21.57;;;;;;;-3.48;100.00;102674.78;4972326;28;20202;-47
2022/01/13 06:44:21;;;;;;;23.83;19.73;;;;;;;-3.52;100.00;102676.16;4973237;28;20280;-47
2022/01/13 06:46:46;;;;;;;23.43;20.27;;;;;;;-3.54;100.00;102672.59;4970098;28;20194;-47
2022/01/13 06:49:12;;;;;;;25.00;20.30;;;;;;;-3.54;100.00;102691.94;4962086;28;20201;-47
2022/01/13 06:51:37;;;;;;;23.87;20.23;;;;;;;-3.56;100.00;102689.31;4959996;28;22265;-48
2022/01/13 06:54:02;;;;;;;24.67;21.83;;;;;;;-3.55;100.00;102690.16;4962981;28;20721;-47
2022/01/13 06:56:29;;;;;;;25.20;21.90;;;;;;;-3.55;100.00;102697.75;4962438;28;20198;-47
2022/01/13 06:58:55;;;;;;;24.77;21.03;;;;;;;-3.55;100.00;102701.19;4960693;28;20197;-46
2022/01/13 07:01:22;;;;;;;24.90;20.30;;;;;;;-3.56;100.00;102693.50;4963247;28;20719;-46
2022/01/13 07:03:48;;;;;;;22.87;19.87;;;;;;;-3.58;100.00;102688.28;4959727;28;20209;-46
2022/01/13 07:06:13;;;;;;;25.53;20.83;;;;;;;-3.57;100.00;102699.31;4964371;28;20217;-46
2022/01/13 07:08:38;;;;;;;26.53;19.63;;;;;;;-3.58;100.00;102698.41;4962225;28;20277;-46
2022/01/13 07:11:04;;;;;;;26.77;21.27;;;;;;;-3.56;100.00;102704.47;4959360;28;20190;-46
2022/01/13 07:13:31;;;;;;;28.37;23.63;;;;;;;-3.54;100.00;102708.03;4963201;28;20216;-46
2022/01/13 07:15:58;;;;;;;30.80;26.27;;;;;;;-3.52;100.00;102714.13;4970246;28;20670;-46
2022/01/13 07:18:24;;;;;;;25.93;22.00;;;;;;;-3.50;100.00;102713.38;4970632;28;20277;-46
2022/01/13 07:20:49;;;;;;;29.30;23.70;;;;;;;-3.46;100.00;102718.84;4969352;28;20272;-46
2022/01/13 07:23:14;;;;;;;28.17;24.10;;;;;;;-3.44;100.00;102712.28;4960541;28;20233;-46
2022/01/13 07:25:40;;;;;;;30.00;25.37;;;;;;;-3.41;100.00;102717.63;4968904;28;20217;-46
2022/01/13 07:28:05;;;;;;;31.60;24.77;;;;;;;-3.37;100.00;102718.75;4970419;28;20212;-46
2022/01/13 07:30:33;;;;;;;26.73;23.80;;;;;;;-3.34;100.00;102721.56;4976857;28;20189;-48
2022/01/13 07:32:58;;;;;;;37.13;30.80;;;;;;;-3.27;100.00;102712.84;4968608;28;20281;-47
2022/01/13 07:35:24;;;;;;;35.60;29.80;;;;;;;-3.23;100.00;102713.25;4963321;28;20299;-47
2022/01/13 07:37:50;;;;;;;32.93;28.67;;;;;;;-3.19;100.00;102716.91;4959937;28;20281;-47
2022/01/13 07:40:17;;;;;;;34.97;28.10;;;;;;;-3.18;100.00;102718.69;4955658;28;20296;-47
2022/01/13 07:42:43;;;;;;;32.87;27.33;;;;;;;-3.13;100.00;102709.88;4970827;28;20196;-47
2022/01/13 07:45:11;;;;;;;30.70;25.43;;;;;;;-3.13;100.00;102714.03;4968112;28;20415;-47
2022/01/13 07:47:36;;;;;;;28.37;23.57;;;;;;;-3.11;100.00;102709.97;4970191;28;20194;-47
2022/01/13 07:50:03;;;;;;;31.87;26.53;;;;;;;-3.07;100.00;102715.44;4963909;28;20689;-47
2022/01/13 07:52:32;;;;;;;29.57;24.30;;;;;;;-2.99;100.00;102715.22;4963272;28;20196;-46
2022/01/13 07:54:57;;;;;;;27.50;23.20;;;;;;;-2.95;100.00;102718.13;4970834;28;20548;-46
2022/01/13 07:57:22;;;;;;;25.77;22.50;;;;;;;-2.87;100.00;102720.47;4959690;28;20194;-47
2022/01/13 07:59:48;;;;;;;25.50;21.63;;;;;;;-2.81;100.00;102715.88;4973349;28;20217;-47
2022/01/13 08:02:14;;;;;;;26.83;22.03;;;;;;;-2.77;100.00;102716.28;4973586;28;20189;-47
2022/01/13 08:04:39;;;;;;;29.50;24.63;;;;;;;-2.73;100.00;102709.84;4971671;28;20221;-47
2022/01/13 08:07:04;;;;;;;27.60;22.40;;;;;;;-2.69;100.00;102716.91;4973696;28;20222;-46
2022/01/13 08:09:30;;;;;;;34.53;26.43;;;;;;;-2.64;100.00;102722.38;4972438;28;20188;-49
2022/01/13 08:11:55;;;;;;;34.23;27.20;;;;;;;-2.59;100.00;102723.66;4973842;28;20277;-46
2022/01/13 08:14:20;;;;;;;38.17;31.93;;;;;;;-2.49;100.00;102730.38;4973437;28;20268;-47
2022/01/13 08:16:47;;;;;;;37.73;31.50;;;;;;;-2.38;100.00;102723.69;4973563;28;20185;-47
2022/01/13 08:21:56;;;;;;;35.07;30.10;;;;;;;-2.20;100.00;102725.22;4973986;28;20206;-48
2022/01/13 08:24:21;;;;;;;33.63;29.07;;;;;;;-2.15;100.00;102728.13;4973200;28;20203;-47
2022/01/13 08:26:47;;;;;;;34.63;29.17;;;;;;;-2.07;100.00;102726.22;4974335;28;20186;-47
2022/01/13 08:29:12;;;;;;;35.10;29.27;;;;;;;-2.00;100.00;102720.88;4969395;28;20747;-47
2022/01/13 08:31:38;;;;;;;32.63;26.50;;;;;;;-1.92;100.00;102719.88;4973020;28;20617;-47
2022/01/13 08:34:03;;;;;;;29.07;24.67;;;;;;;-1.84;100.00;102721.34;4972628;28;20194;-46
2022/01/13 08:36:29;;;;;;;28.23;24.97;;;;;;;-1.77;100.00;102711.72;4972915;28;20202;-49
2022/01/13 08:38:57;;;;;;;28.70;25.57;;;;;;;-1.71;100.00;102713.09;4973799;28;20189;-47
2022/01/13 08:41:22;;;;;;;28.70;23.50;;;;;;;-1.65;100.00;102715.22;4975070;28;20221;-46
2022/01/13 08:43:51;;;;;;;26.13;21.73;;;;;;;-1.56;100.00;102705.78;4973727;28;20250;-47
2022/01/13 08:46:17;;;;;;;25.93;22.50;;;;;;;-1.47;100.00;102702.22;4972214;28;20204;-46
2022/01/13 08:48:42;;;;;;;25.87;22.53;;;;;;;-1.40;100.00;102705.38;4974350;28;20570;-46
2022/01/13 08:51:07;;;;;;;27.63;22.50;;;;;;;-1.32;100.00;102711.06;4978803;28;20190;-46
2022/01/13 08:53:33;;;;;;;25.80;21.10;;;;;;;-1.26;100.00;102705.56;4972873;28;20282;-47
2022/01/13 08:56:00;;;;;;;25.30;22.00;;;;;;;-1.19;100.00;102701.84;4970697;28;20283;-47
2022/01/13 08:58:25;;;;;;;27.27;22.57;;;;;;;-1.14;100.00;102701.44;4973478;28;20540;-47
2022/01/13 09:00:53;;;;;;;28.03;23.90;;;;;;;-1.09;100.00;102692.53;4972885;28;20182;-47
2022/01/13 09:03:18;;;;;;;23.57;20.93;;;;;;;-1.03;100.00;102701.38;4972550;28;20639;-48
2022/01/13 09:05:44;;;;;;;27.13;22.40;;;;;;;-1.00;100.00;102694.91;4971923;28;20218;-47
2022/01/13 09:08:11;;;;;;;27.20;23.07;;;;;;;-0.99;100.00;102694.13;4972501;28;20186;-47
2022/01/13 09:10:41;;;;;;;28.37;24.60;;;;;;;-0.96;100.00;102694.34;4970902;28;20250;-47
2022/01/13 09:13:12;;;;;;;24.70;21.73;;;;;;;-0.91;100.00;102687.09;4965736;28;20183;-48
2022/01/13 09:15:44;;;;;;;25.00;21.83;;;;;;;-0.85;100.00;102686.66;4972018;28;20686;-47
2022/01/13 09:18:18;;;;;;;22.80;20.03;;;;;;;-0.80;100.00;102676.06;4973395;28;20183;-47
2022/01/13 09:20:46;;;;;;;24.50;20.80;;;;;;;-0.74;100.00;102680.75;4971343;28;20665;-47
2022/01/13 09:23:11;;;;;;;24.03;19.83;;;;;;;-0.64;100.00;102675.56;4965028;28;20227;-47
2022/01/13 09:25:37;;;;;;;21.97;19.17;;;;;;;-0.56;100.00;102681.22;4981004;28;20219;-47
2022/01/13 09:28:05;;;;;;;24.00;20.03;;;;;;;-0.47;100.00;102692.13;4971222;28;20271;-47
2022/01/13 09:30:30;;;;;;;22.13;17.90;;;;;;;-0.40;100.00;102685.81;4971377;28;20270;-47
2022/01/13 09:32:56;;;;;;;20.30;18.10;;;;;;;-0.33;100.00;102682.94;4966579;28;20710;-47
2022/01/13 09:35:21;;;;;;;22.30;19.20;;;;;;;-0.26;100.00;102697.00;4974554;28;20680;-47
2022/01/13 09:37:47;;;;;;;19.03;16.83;;;;;;;-0.20;100.00;102694.94;4971429;28;20192;-47
2022/01/13 09:40:13;;;;;;;20.67;17.93;;;;;;;-0.12;100.00;102690.41;4972448;28;20190;-47
2022/01/13 09:42:41;;;;;;;22.30;19.97;;;;;;;-0.06;100.00;102695.94;4971343;28;20209;-46
2022/01/13 09:45:08;;;;;;;25.30;20.97;;;;;;;0.04;100.00;102699.19;4971488;28;20249;-46
2022/01/13 09:47:35;;;;;;;24.87;20.00;;;;;;;0.08;100.00;102694.41;4970525;28;20195;-47
2022/01/13 09:50:04;;;;;;;22.17;19.70;;;;;;;0.19;100.00;102697.75;4990551;28;20200;-47
2022/01/13 09:52:30;;;;;;;22.50;19.40;;;;;;;0.23;100.00;102697.16;4972285;28;20197;-46
2022/01/13 09:54:55;;;;;;;21.33;19.13;;;;;;;0.25;100.00;102697.28;4969850;28;20218;-46
2022/01/13 09:57:21;;;;;;;23.30;19.10;;;;;;;0.30;100.00;102688.34;4973161;28;20188;-46
2022/01/13 09:59:46;;;;;;;25.07;20.73;;;;;;;0.39;100.00;102685.53;4970533;28;20269;-46
2022/01/13 10:02:11;;;;;;;21.80;19.60;;;;;;;0.47;100.00;102678.44;4971974;28;20189;-46
2022/01/13 10:04:44;;;;;;;22.03;19.70;;;;;;;0.49;100.00;102682.88;4969534;28;20724;-48
2022/01/13 10:07:11;;;;;;;22.07;19.13;;;;;;;0.54;100.00;102667.91;4970025;28;20190;-47
2022/01/13 10:09:58;;;;;;;21.17;18.97;;;;;;;0.69;100.00;102675.75;4973233;28;20554;-47
2022/01/13 10:12:32;;;;;;;21.17;18.93;;;;;;;0.79;100.00;102685.81;4965608;28;20273;-47
2022/01/13 10:17:45;;;;;;;22.33;18.50;;;;;;;0.84;100.00;102681.91;4970469;28;20887;-47
2022/01/13 10:20:12;;;;;;;20.03;17.50;;;;;;;0.92;100.00;102682.44;4975268;28;20188;-47
2022/01/13 10:22:37;;;;;;;21.23;18.40;;;;;;;1.04;100.00;102679.84;4973050;28;20189;-47
2022/01/13 10:25:03;;;;;;;19.37;17.07;;;;;;;1.12;100.00;102682.94;4974116;28;20218;-47
2022/01/13 10:27:31;;;;;;;21.77;18.80;;;;;;;1.18;100.00;102686.78;4971032;28;20359;-47
2022/01/13 10:30:00;;;;;;;22.53;18.43;;;;;;;1.29;100.00;102686.63;4972435;28;20269;-46
2022/01/13 10:32:27;;;;;;;17.20;15.33;;;;;;;1.36;100.00;102676.06;4970853;28;20193;-46
2022/01/13 10:35:12;;;;;;;17.27;15.47;;;;;;;1.42;100.00;102668.84;4975540;28;20209;-46
2022/01/13 10:37:39;;;;;;;20.17;18.07;;;;;;;1.49;100.00;102670.13;4970951;28;20209;-46
2022/01/13 10:40:11;;;;;;;20.57;18.47;;;;;;;1.52;100.00;102672.84;4973338;28;20185;-46
2022/01/13 10:45:21;;;;;;;19.67;17.03;;;;;;;1.66;100.00;102673.78;4968602;28;20324;-46
2022/01/13 10:47:54;;;;;;;18.37;16.50;;;;;;;1.73;100.00;102677.63;4969614;28;20190;-48
2022/01/13 10:50:21;;;;;;;18.87;16.50;;;;;;;1.78;100.00;102673.72;4963311;28;20201;-46
2022/01/13 10:52:49;;;;;;;17.17;15.37;;;;;;;1.87;100.00;102669.22;4970443;28;20198;-46
2022/01/13 10:55:17;;;;;;;17.70;15.83;;;;;;;1.91;100.00;102668.63;4973023;28;20201;-48
2022/01/13 10:57:44;;;;;;;17.83;15.97;;;;;;;2.02;100.00;102677.00;4969798;28;20200;-46
2022/01/13 11:00:24;;;;;;;19.00;16.17;;;;;;;2.14;100.00;102671.75;4972817;28;20676;-48
2022/01/13 11:03:05;;;;;;;20.50;16.73;;;;;;;2.24;100.00;102670.69;4969568;28;20340;-47
2022/01/13 11:05:34;;;;;;;18.70;16.60;;;;;;;2.24;100.00;102673.25;4974399;28;20667;-47
2022/01/13 11:08:05;;;;;;;18.83;16.07;;;;;;;2.40;100.00;102657.22;4974493;28;20246;-47
2022/01/13 11:10:31;;;;;;;18.70;15.97;;;;;;;2.46;100.00;102664.38;4972194;28;20193;-47
2022/01/13 11:12:58;;;;;;;17.53;15.73;;;;;;;2.57;100.00;102665.94;4972561;28;20193;-47
2022/01/13 11:15:25;;;;;;;16.83;15.10;;;;;;;2.58;100.00;102668.56;4969869;28;20263;-47
2022/01/13 11:17:53;;;;;;;16.47;14.63;;;;;;;2.62;100.00;102676.44;4968926;28;20200;-47
2022/01/13 11:20:20;;;;;;;16.03;14.43;;;;;;;2.65;100.00;102663.84;4973449;28;20220;-47
2022/01/13 11:22:48;;;;;;;15.67;14.07;;;;;;;2.69;100.00;102661.56;4969786;28;20293;-47
2022/01/13 11:25:17;;;;;;;15.13;13.63;;;;;;;2.73;100.00;102667.75;4969038;28;20209;-47